Time;durP1;ratioP1;P1;durP2;ratioP2;P2;SDS_P1;SDS_P2;PMS_P1;PMS_P2;Temp;Humidity;BMP_temperature;BMP_pressure;BME280_temperature;BME280_humidity;BME280_pressure;Samples;Min_cycle;Max_cycle;Signal;HPM_P1;HPM_P2
2023/07/08 00:00:54;;;;;;;;;;;;;;;;;;5005556;28;19925;-88
2023/07/08 00:03:19;;;;;;;;;;;;;;;;;;4999741;28;20016;-90
2023/07/08 00:05:45;;;;;;;;;;;;;;;;;;4998483;28;19914;-90
2023/07/08 00:08:11;;;;;;;;;;;;;;;;;;4996918;28;19932;-90
2023/07/08 00:10:40;;;;;;;;;;;;;;;;;;4999312;28;20464;-90
2023/07/08 00:13:05;;;;;;;;;;;;;;;;;;5013127;28;19906;-87
2023/07/08 00:15:36;;;;;;;;;;;;;;;;;;5016740;28;19917;-87
2023/07/08 00:18:21;;;;;;;;;;;;;;;;;;5017605;28;19992;-88
2023/07/08 00:20:47;;;;;;;;;;;;;;;;;;5023110;28;19973;-87
2023/07/08 00:26:29;;;;;;;;;;;;;;;;;;5039857;28;19929;-87
2023/07/08 00:28:55;;;;;;;;;;;;;;;;;;5039452;28;19928;-86
2023/07/08 00:31:31;;;;;;;;;;;;;;;;;;5022652;28;19948;-88
2023/07/08 00:33:57;;;;;;;;;;;;;;;;;;5007001;28;19934;-85
2023/07/08 00:36:23;;;;;;;;;;;;;;;;;;5023211;28;19901;-87
2023/07/08 00:38:53;;;;;;;;;;;;;;;;;;5022799;28;19913;-89
2023/07/08 00:41:21;;;;;;;;;;;;;;;;;;5039533;28;19906;-90
2023/07/08 00:43:46;;;;;;;;;;;;;;;;;;5045380;28;19921;-87
2023/07/08 00:46:12;;;;;;;;;;;;;;;;;;5008684;28;19952;-89
2023/07/08 00:48:40;;;;;;;;;;;;;;;;;;4991777;28;20373;-90
2023/07/08 00:51:05;;;;;;;;;;;;;;;;;;5005454;28;19913;-89
2023/07/08 00:53:32;;;;;;;;;;;;;;;;;;5005374;28;19940;-90
2023/07/08 00:55:57;;;;;;;;;;;;;;;;;;5002387;28;19964;-90
2023/07/08 00:58:23;;;;;;;;;;;;;;;;;;5000631;28;19921;-89
2023/07/08 01:00:53;;;;;;;;;;;;;;;;;;4981190;28;19925;-89
2023/07/08 01:03:20;;;;;;;;;;;;;;;;;;5016224;28;19913;-90
2023/07/08 01:05:45;;;;;;;;;;;;;;;;;;4981263;28;19983;-90
2023/07/08 01:08:11;;;;;;;;;;;;;;;;;;4999342;28;20171;-89
2023/07/08 01:10:39;;;;;;;;;;;;;;;;;;5022543;28;19914;-91
2023/07/08 01:13:07;;;;;;;;;;;;;;;;;;5021982;28;20361;-91
2023/07/08 01:15:33;;;;;;;;;;;;;;;;;;5026132;28;19918;-90
2023/07/08 01:17:58;;;;;;;;;;;;;;;;;;5018858;28;19976;-88
2023/07/08 01:20:24;;;;;;;;;;;;;;;;;;5017731;28;19913;-89
2023/07/08 01:22:50;;;;;;;;;;;;;;;;;;5016270;28;19989;-85
2023/07/08 01:25:18;;;;;;;;;;;;;;;;;;4993782;28;19933;-89
2023/07/08 01:27:52;;;;;;;;;;;;;;;;;;4978523;28;19917;-90
2023/07/08 01:30:18;;;;;;;;;;;;;;;;;;4995000;28;19936;-89
2023/07/08 01:32:46;;;;;;;;;;;;;;;;;;4993252;28;19914;-88
2023/07/08 01:35:18;;;;;;;;;;;;;;;;;;4978296;28;19950;-91
2023/07/08 01:37:45;;;;;;;;;;;;;;;;;;4986511;28;19917;-91
2023/07/08 01:40:11;;;;;;;;;;;;;;;;;;4986266;28;19992;-89
2023/07/08 01:42:36;;;;;;;;;;;;;;;;;;4974347;28;20526;-89
2023/07/08 01:45:07;;;;;;;;;;;;;;;;;;4976963;28;19914;-91
2023/07/08 01:47:32;;;;;;;;;;;;;;;;;;4963209;28;19922;-90
2023/07/08 01:49:57;;;;;;;;;;;;;;;;;;4956709;28;19924;-92
2023/07/08 01:52:23;;;;;;;;;;;;;;;;;;4979018;28;20012;-88
2023/07/08 01:54:52;;;;;;;;;;;;;;;;;;4955292;28;19914;-92
2023/07/08 01:57:22;;;;;;;;;;;;;;;;;;4991785;28;19973;-90
2023/07/08 01:59:47;;;;;;;;;;;;;;;;;;4995339;28;19992;-90
2023/07/08 02:02:16;;;;;;;;;;;;;;;;;;5001040;28;19914;-87
2023/07/08 02:04:42;;;;;;;;;;;;;;;;;;4961393;28;19918;-91
2023/07/08 02:07:08;;;;;;;;;;;;;;;;;;4975865;28;19929;-87
2023/07/08 02:09:33;;;;;;;;;;;;;;;;;;4997321;28;19922;-87
2023/07/08 02:11:59;;;;;;;;;;;;;;;;;;5001572;28;19921;-89
2023/07/08 02:14:26;;;;;;;;;;;;;;;;;;4962620;28;19922;-91
2023/07/08 02:16:52;;;;;;;;;;;;;;;;;;4962290;28;19917;-89
2023/07/08 02:19:22;;;;;;;;;;;;;;;;;;4976800;28;20120;-91
2023/07/08 02:21:47;;;;;;;;;;;;;;;;;;4993435;28;19933;-91
2023/07/08 02:24:16;;;;;;;;;;;;;;;;;;4976354;28;20600;-90
2023/07/08 02:26:42;;;;;;;;;;;;;;;;;;4972201;28;19930;-88
2023/07/08 02:29:08;;;;;;;;;;;;;;;;;;4990890;28;19936;-89
2023/07/08 02:31:33;;;;;;;;;;;;;;;;;;4968169;28;19921;-90
2023/07/08 02:33:58;;;;;;;;;;;;;;;;;;4954443;28;20028;-89
2023/07/08 02:36:25;;;;;;;;;;;;;;;;;;5000867;28;19952;-91
2023/07/08 02:38:51;;;;;;;;;;;;;;;;;;4995266;28;19913;-89
2023/07/08 02:41:18;;;;;;;;;;;;;;;;;;4998541;28;19924;-89
2023/07/08 02:43:47;;;;;;;;;;;;;;;;;;4979566;28;19948;-90
2023/07/08 02:46:21;;;;;;;;;;;;;;;;;;5010569;28;19941;-87
2023/07/08 02:48:47;;;;;;;;;;;;;;;;;;5011458;28;19993;-89
2023/07/08 02:51:13;;;;;;;;;;;;;;;;;;5006597;28;19918;-87
2023/07/08 02:53:38;;;;;;;;;;;;;;;;;;4986868;28;20409;-87
2023/07/08 02:56:10;;;;;;;;;;;;;;;;;;5003285;28;19913;-90
2023/07/08 02:58:40;;;;;;;;;;;;;;;;;;4995976;28;19918;-90
2023/07/08 03:01:06;;;;;;;;;;;;;;;;;;5001256;28;20032;-91
2023/07/08 03:03:31;;;;;;;;;;;;;;;;;;4997200;28;19913;-89
2023/07/08 03:05:58;;;;;;;;;;;;;;;;;;5014590;28;19937;-87
2023/07/08 03:08:24;;;;;;;;;;;;;;;;;;4996955;28;19949;-89
2023/07/08 03:10:53;;;;;;;;;;;;;;;;;;5011986;28;19953;-88
2023/07/08 03:13:19;;;;;;;;;;;;;;;;;;4996864;28;19959;-91
2023/07/08 03:15:54;;;;;;;;;;;;;;;;;;5003793;28;19914;-89
2023/07/08 03:18:26;;;;;;;;;;;;;;;;;;4994699;28;19936;-88
2023/07/08 03:20:55;;;;;;;;;;;;;;;;;;5010592;28;20019;-91
2023/07/08 03:23:23;;;;;;;;;;;;;;;;;;5012466;28;19921;-90
2023/07/08 03:25:49;;;;;;;;;;;;;;;;;;4995135;28;19921;-92
2023/07/08 03:28:27;;;;;;;;;;;;;;;;;;5009873;28;19925;-92
2023/07/08 03:30:52;;;;;;;;;;;;;;;;;;4997241;28;19929;-88
2023/07/08 03:33:20;;;;;;;;;;;;;;;;;;4978587;28;19913;-89
2023/07/08 03:35:46;;;;;;;;;;;;;;;;;;4980297;28;20322;-88
2023/07/08 03:38:11;;;;;;;;;;;;;;;;;;5010407;28;19944;-89
2023/07/08 03:40:51;;;;;;;;;;;;;;;;;;5010807;28;19913;-90
2023/07/08 03:43:18;;;;;;;;;;;;;;;;;;5010829;28;19921;-91
2023/07/08 03:45:48;;;;;;;;;;;;;;;;;;5017068;28;20457;-88
2023/07/08 03:48:13;;;;;;;;;;;;;;;;;;4993679;28;19924;-89
2023/07/08 03:50:39;;;;;;;;;;;;;;;;;;4976927;28;19917;-87
2023/07/08 03:53:05;;;;;;;;;;;;;;;;;;4994196;28;19991;-90
2023/07/08 03:55:30;;;;;;;;;;;;;;;;;;4995157;28;19952;-88
2023/07/08 03:57:58;;;;;;;;;;;;;;;;;;4994763;28;19917;-92
2023/07/08 04:00:24;;;;;;;;;;;;;;;;;;4996696;28;20244;-91
2023/07/08 04:02:49;;;;;;;;;;;;;;;;;;4995058;28;19925;-89
2023/07/08 04:05:30;;;;;;;;;;;;;;;;;;4979657;28;19925;-89
2023/07/08 04:07:59;;;;;;;;;;;;;;;;;;4993254;28;19968;-89
2023/07/08 04:10:25;;;;;;;;;;;;;;;;;;5001932;28;19913;-89
2023/07/08 04:12:51;;;;;;;;;;;;;;;;;;5022069;28;20310;-91
2023/07/08 04:15:17;;;;;;;;;;;;;;;;;;5015232;28;19986;-89
2023/07/08 04:17:43;;;;;;;;;;;;;;;;;;5025410;28;19939;-88
2023/07/08 04:20:10;;;;;;;;;;;;;;;;;;4991814;28;20048;-87
2023/07/08 04:22:36;;;;;;;;;;;;;;;;;;5004157;28;19921;-90
2023/07/08 04:25:03;;;;;;;;;;;;;;;;;;5039734;28;19928;-86
2023/07/08 04:27:49;;;;;;;;;;;;;;;;;;5017145;28;19944;-88
2023/07/08 04:30:15;;;;;;;;;;;;;;;;;;5024577;28;19913;-88
2023/07/08 04:32:40;;;;;;;;;;;;;;;;;;5012198;28;19929;-87
2023/07/08 04:35:15;;;;;;;;;;;;;;;;;;5038436;28;19921;-87
2023/07/08 04:37:41;;;;;;;;;;;;;;;;;;5021503;28;19913;-85
2023/07/08 04:40:07;;;;;;;;;;;;;;;;;;5014069;28;20226;-91
2023/07/08 04:42:37;;;;;;;;;;;;;;;;;;5021273;28;19952;-90
2023/07/08 04:45:09;;;;;;;;;;;;;;;;;;5008090;28;19913;-91
2023/07/08 04:47:37;;;;;;;;;;;;;;;;;;5025083;28;19920;-90
2023/07/08 04:50:03;;;;;;;;;;;;;;;;;;5006848;28;19913;-90
2023/07/08 04:58:09;;;;;;;;;;;;;;;;;;4978325;28;19918;-91
2023/07/08 05:00:44;;;;;;;;;;;;;;;;;;4999608;28;19987;-89
2023/07/08 05:03:10;;;;;;;;;;;;;;;;;;5021014;28;20301;-90
2023/07/08 05:05:39;;;;;;;;;;;;;;;;;;4997280;28;19941;-90
2023/07/08 05:08:13;;;;;;;;;;;;;;;;;;5018887;28;19917;-89
2023/07/08 05:10:40;;;;;;;;;;;;;;;;;;5014601;28;19913;-90
2023/07/08 05:13:06;;;;;;;;;;;;;;;;;;4997872;28;19928;-92
2023/07/08 05:15:36;;;;;;;;;;;;;;;;;;5001496;28;19944;-88
2023/07/08 05:18:03;;;;;;;;;;;;;;;;;;5003515;28;20041;-90
2023/07/08 05:20:30;;;;;;;;;;;;;;;;;;4982636;28;19929;-92
2023/07/08 05:22:56;;;;;;;;;;;;;;;;;;4996420;28;20359;-90
2023/07/08 05:25:21;;;;;;;;;;;;;;;;;;5000587;28;19925;-89
2023/07/08 05:27:51;;;;;;;;;;;;;;;;;;4997783;28;19914;-90
2023/07/08 05:30:16;;;;;;;;;;;;;;;;;;5022597;28;20286;-88
2023/07/08 05:32:45;;;;;;;;;;;;;;;;;;5037203;28;19937;-87
2023/07/08 05:35:11;;;;;;;;;;;;;;;;;;4992096;28;19913;-89
2023/07/08 05:37:49;;;;;;;;;;;;;;;;;;;;;
2023/07/08 05:40:58;;;;;;;;;;;;;;;;;;4957640;28;19959;-89
2023/07/08 05:43:26;;;;;;;;;;;;;;;;;;5011986;28;19925;-91
2023/07/08 05:45:53;;;;;;;;;;;;;;;;;;4971665;28;20479;-91
2023/07/08 05:48:19;;;;;;;;;;;;;;;;;;4956366;28;20097;-91
2023/07/08 05:50:45;;;;;;;;;;;;;;;;;;4971217;28;19918;-87
2023/07/08 05:53:25;;;;;;;;;;;;;;;;;;4980100;28;20097;-91
2023/07/08 05:56:01;;;;;;;;;;;;;;;;;;4969246;28;19925;-87
2023/07/08 05:58:27;;;;;;;;;;;;;;;;;;4977719;28;20025;-91
2023/07/08 06:00:53;;;;;;;;;;;;;;;;;;4984681;28;19944;-88
2023/07/08 06:03:19;;;;;;;;;;;;;;;;;;4961231;28;19918;-92
2023/07/08 06:05:47;;;;;;;;;;;;;;;;;;4975911;28;19981;-89
2023/07/08 06:11:37;;;;;;;;;;;;;;;;;;4978716;28;19924;-92
2023/07/08 06:14:03;;;;;;;;;;;;;;;;;;4967734;28;20447;-88
2023/07/08 06:16:30;;;;;;;;;;;;;;;;;;4961628;28;19931;-94
2023/07/08 06:18:56;;;;;;;;;;;;;;;;;;5013764;28;19926;-90
2023/07/08 06:21:27;;;;;;;;;;;;;;;;;;4997941;28;19940;-92
2023/07/08 06:23:55;;;;;;;;;;;;;;;;;;4997729;28;20378;-89
2023/07/08 06:26:26;;;;;;;;;;;;;;;;;;4998948;28;20003;-90
2023/07/08 06:28:56;;;;;;;;;;;;;;;;;;5014688;28;19921;-90
2023/07/08 06:31:21;;;;;;;;;;;;;;;;;;4981023;28;19921;-89
2023/07/08 06:33:59;;;;;;;;;;;;;;;;;;4997514;28;19918;-91
2023/07/08 06:36:25;;;;;;;;;;;;;;;;;;4963056;28;19926;-89
2023/07/08 06:38:57;;;;;;;;;;;;;;;;;;4950922;28;19929;-91
2023/07/08 06:41:29;;;;;;;;;;;;;;;;;;4964680;28;20024;-92
2023/07/08 06:44:00;;;;;;;;;;;;;;;;;;4960195;28;19949;-90
2023/07/08 06:46:25;;;;;;;;;;;;;;;;;;4965514;28;19914;-89
2023/07/08 06:48:54;;;;;;;;;;;;;;;;;;4962735;28;20261;-91
2023/07/08 06:51:20;;;;;;;;;;;;;;;;;;4955893;28;19956;-90
2023/07/08 06:53:48;;;;;;;;;;;;;;;;;;4957630;28;20326;-92
2023/07/08 06:56:14;;;;;;;;;;;;;;;;;;4959680;28;20620;-88
2023/07/08 06:58:42;;;;;;;;;;;;;;;;;;4966247;28;19921;-89
2023/07/08 07:01:10;;;;;;;;;;;;;;;;;;4980198;28;19956;-87
2023/07/08 07:03:36;;;;;;;;;;;;;;;;;;4967211;28;19922;-91
2023/07/08 07:06:02;;;;;;;;;;;;;;;;;;4948714;28;19941;-90
2023/07/08 07:08:37;;;;;;;;;;;;;;;;;;4963720;28;19926;-89
2023/07/08 07:11:02;;;;;;;;;;;;;;;;;;4978155;28;20004;-91
2023/07/08 07:13:28;;;;;;;;;;;;;;;;;;4957762;28;19991;-90
2023/07/08 07:15:56;;;;;;;;;;;;;;;;;;4999210;28;19924;-92
2023/07/08 07:18:23;;;;;;;;;;;;;;;;;;4978957;28;20276;-89
2023/07/08 07:20:49;;;;;;;;;;;;;;;;;;4996705;28;20584;-89
2023/07/08 07:23:15;;;;;;;;;;;;;;;;;;5020959;28;19913;-92
2023/07/08 07:25:45;;;;;;;;;;;;;;;;;;4995211;28;20330;-92
2023/07/08 07:28:10;;;;;;;;;;;;;;;;;;4994733;28;19975;-91
2023/07/08 07:30:37;;;;;;;;;;;;;;;;;;4994243;28;19910;-91
2023/07/08 07:33:03;;;;;;;;;;;;;;;;;;4976941;28;19933;-90
2023/07/08 07:35:28;;;;;;;;;;;;;;;;;;4951969;29;20326;-88
2023/07/08 07:37:55;;;;;;;;;;;;;;;;;;4937475;28;20379;-91
2023/07/08 07:40:20;;;;;;;;;;;;;;;;;;4937662;29;19984;-92
2023/07/08 07:42:47;;;;;;;;;;;;;;;;;;4936713;29;20421;-92
2023/07/08 07:45:14;;;;;;;;;;;;;;;;;;4937450;29;19918;-90
2023/07/08 07:47:48;;;;;;;;;;;;;;;;;;4926693;29;20029;-90
2023/07/08 07:50:21;;;;;;;;;;;;;;;;;;4939191;29;19972;-89
2023/07/08 07:52:56;;;;;;;;;;;;;;;;;;;;;
2023/07/08 07:55:30;;;;;;;;;;;;;;;;;;4956038;29;19977;-90
2023/07/08 07:57:56;;;;;;;;;;;;;;;;;;4957760;28;19968;-88
2023/07/08 08:00:21;;;;;;;;;;;;;;;;;;4942721;29;19930;-90
2023/07/08 08:02:49;;;;;;;;;;;;;;;;;;4924677;29;20316;-91
2023/07/08 08:05:25;;;;;;;;;;;;;;;;;;4958616;29;19922;-89
2023/07/08 08:07:52;;;;;;;;;;;;;;;;;;5013723;28;19949;-89
2023/07/08 08:10:37;;;;;;;;;;;;;;;;;;5020085;28;19921;-88
2023/07/08 08:13:04;;;;;;;;;;;;;;;;;;5007232;28;19921;-91
2023/07/08 08:15:34;;;;;;;;;;;;;;;;;;5004038;28;19944;-91
2023/07/08 08:18:05;;;;;;;;;;;;;;;;;;5017249;28;19924;-92
2023/07/08 08:20:40;;;;;;;;;;;;;;;;;;;;;
2023/07/08 08:23:07;;;;;;;;;;;;;;;;;;5002664;28;19913;-91
2023/07/08 08:25:32;;;;;;;;;;;;;;;;;;5001957;28;19917;-90
2023/07/08 08:27:58;;;;;;;;;;;;;;;;;;5019971;28;19967;-90
2023/07/08 08:30:23;;;;;;;;;;;;;;;;;;5004492;28;19941;-90
2023/07/08 08:32:49;;;;;;;;;;;;;;;;;;4998607;28;19929;-88
2023/07/08 08:35:14;;;;;;;;;;;;;;;;;;5018406;28;20036;-87
2023/07/08 08:37:39;;;;;;;;;;;;;;;;;;4998351;28;19917;-87
2023/07/08 08:40:07;;;;;;;;;;;;;;;;;;5018936;28;19948;-88
2023/07/08 08:42:39;;;;;;;;;;;;;;;;;;5017958;28;19915;-87
2023/07/08 08:45:07;;;;;;;;;;;;;;;;;;5038334;23;19939;-66
2023/07/08 08:47:32;;;;;;;;;;;;;;;;;;5048672;28;19951;-69
2023/07/08 08:49:58;;;;;;;;;;;;;;;;;;5024022;28;22128;-67
2023/07/08 08:52:23;;;;;;;;;;;;;;;;;;5046708;28;20387;-66
2023/07/08 08:54:51;;;;;;;;;;;;;;;;;;5035220;28;20699;-67
2023/07/08 08:57:16;;;;;;;;;;;;;;;;;;5050365;28;19931;-66
2023/07/08 08:59:44;;;;;;;;;;;;;;;;;;5052162;28;19916;-67
2023/07/08 09:02:09;;;;;;;;;;;;;;;;;;5048268;28;19915;-71
2023/07/08 09:04:35;;;;;;;;;;;;;;;;;;5044123;28;20294;-66
2023/07/08 09:07:03;;;;;;;;;;;;;;;;;;5091917;28;20002;-72
2023/07/08 09:09:28;;;;;;;;;;;;;;;;;;5073573;28;21847;-68
2023/07/08 09:11:56;;;;;;;;;;;;;;;;;;5071211;28;19947;-71
2023/07/08 09:14:21;;;;;;;;;;;;;;;;;;5090196;28;19915;-66
2023/07/08 09:16:47;;;;;;;;;;;;;;;;;;5091381;27;19924;-67
2023/07/08 09:19:14;;;;;;;;;;;;;;;;;;5056267;28;19926;-66
2023/07/08 09:21:39;;;;;;;;;;;;;;;;;;5072123;28;19915;-69
2023/07/08 09:24:04;;;;;;;;;;;;;;;;;;5055869;28;19919;-68
2023/07/08 09:26:33;;;;;;;;;;;;;;;;;;5071476;28;19920;-68
2023/07/08 09:29:01;;;;;;;;;;;;;;;;;;5079751;28;19924;-68
2023/07/08 09:31:26;;;;;;;;;;;;;;;;;;5071347;28;19931;-66
2023/07/08 09:33:54;;;;;;;;;;;;;;;;;;5072457;28;19966;-66
2023/07/08 09:36:20;;;;;;;;;;;;;;;;;;5072019;28;20034;-66
2023/07/08 09:38:45;;;;;;;;;;;;;;;;;;5068383;28;20012;-68
2023/07/08 09:41:13;;;;;;;;;;;;;;;;;;5054824;28;20861;-67
2023/07/08 09:43:38;;;;;;;;;;;;;;;;;;5054135;28;19915;-68
2023/07/08 09:46:03;;;;;;;;;;;;;;;;;;5071184;28;19973;-65
2023/07/08 09:48:29;;;;;;;;;;;;;;;;;;5054300;28;20380;-66
2023/07/08 09:50:54;;;;;;;;;;;;;;;;;;5070924;28;20129;-67
2023/07/08 09:53:19;;;;;;;;;;;;;;;;;;5054613;28;20936;-67
2023/07/08 09:55:44;;;;;;;;;;;;;;;;;;5091148;28;19923;-68
2023/07/08 09:58:10;;;;;;;;;;;;;;;;;;5053767;28;20351;-66
2023/07/08 10:00:37;;;;;;;;;;;;;;;;;;5054626;28;19916;-67
2023/07/08 10:03:03;;;;;;;;;;;;;;;;;;5070826;28;19922;-67
2023/07/08 10:05:28;;;;;;;;;;;;;;;;;;5072188;28;19920;-66
2023/07/08 10:07:56;;;;;;;;;;;;;;;;;;5072595;28;20034;-69
2023/07/08 10:10:21;;;;;;;;;;;;;;;;;;5068830;28;19916;-66
2023/07/08 10:12:46;;;;;;;;;;;;;;;;;;5070827;28;20359;-67
2023/07/08 10:15:12;;;;;;;;;;;;;;;;;;5070812;28;20009;-66
2023/07/08 10:17:37;;;;;;;;;;;;;;;;;;5066801;28;19927;-66
2023/07/08 10:20:03;;;;;;;;;;;;;;;;;;5087519;28;20011;-65
2023/07/08 10:22:30;;;;;;;;;;;;;;;;;;5054424;28;19922;-66
2023/07/08 10:24:56;;;;;;;;;;;;;;;;;;5054880;28;19920;-66
2023/07/08 10:27:21;;;;;;;;;;;;;;;;;;5069766;28;19920;-67
2023/07/08 10:29:46;;;;;;;;;;;;;;;;;;5073935;28;20680;-65
2023/07/08 10:32:12;;;;;;;;;;;;;;;;;;5070171;28;19923;-65
2023/07/08 10:34:37;;;;;;;;;;;;;;;;;;5053579;28;19916;-67
2023/07/08 10:37:05;;;;;;;;;;;;;;;;;;5072106;28;20169;-66
2023/07/08 10:39:33;;;;;;;;;;;;;;;;;;5069721;28;19915;-65
2023/07/08 10:42:05;;;;;;;;;;;;;;;;;;5067925;28;19919;-64
2023/07/08 10:44:30;;;;;;;;;;;;;;;;;;5090715;28;19919;-65
2023/07/08 10:46:55;;;;;;;;;;;;;;;;;;5054330;28;19920;-65
2023/07/08 10:49:23;;;;;;;;;;;;;;;;;;5054982;28;19924;-64
2023/07/08 10:51:51;;;;;;;;;;;;;;;;;;5053961;28;21214;-68
2023/07/08 10:54:16;;;;;;;;;;;;;;;;;;5087654;28;19920;-65
2023/07/08 10:56:44;;;;;;;;;;;;;;;;;;5051535;28;19967;-65
2023/07/08 10:59:09;;;;;;;;;;;;;;;;;;5053232;28;20066;-65
2023/07/08 11:01:34;;;;;;;;;;;;;;;;;;5069398;28;19966;-67
2023/07/08 11:04:00;;;;;;;;;;;;;;;;;;5066795;28;20056;-64
2023/07/08 11:06:28;;;;;;;;;;;;;;;;;;5088411;28;19927;-65
2023/07/08 11:08:53;;;;;;;;;;;;;;;;;;5070546;28;19923;-65
2023/07/08 11:11:19;;;;;;;;;;;;;;;;;;5090617;28;20366;-67
2023/07/08 11:13:44;;;;;;;;;;;;;;;;;;5069875;28;19978;-65
2023/07/08 11:16:10;;;;;;;;;;;;;;;;;;5069698;28;19931;-64
2023/07/08 11:18:38;;;;;;;;;;;;;;;;;;5053692;28;19926;-65
2023/07/08 11:21:03;;;;;;;;;;;;;;;;;;5093213;28;19919;-64
2023/07/08 11:23:29;;;;;;;;;;;;;;;;;;5094491;28;19919;-68
2023/07/08 11:25:54;;;;;;;;;;;;;;;;;;5094562;28;20700;-65
2023/07/08 11:28:22;;;;;;;;;;;;;;;;;;5073053;28;19946;-64
2023/07/08 11:30:47;;;;;;;;;;;;;;;;;;5059178;28;20370;-64
2023/07/08 11:33:14;;;;;;;;;;;;;;;;;;5088705;28;19920;-64
2023/07/08 11:35:42;;;;;;;;;;;;;;;;;;5076171;28;19927;-65
2023/07/08 11:38:07;;;;;;;;;;;;;;;;;;5074700;28;19973;-64
2023/07/08 11:40:33;;;;;;;;;;;;;;;;;;5057894;28;20418;-65
2023/07/08 11:42:58;;;;;;;;;;;;;;;;;;5073964;28;20001;-65
2023/07/08 11:45:23;;;;;;;;;;;;;;;;;;5073774;28;19935;-66
2023/07/08 11:47:52;;;;;;;;;;;;;;;;;;5093318;28;19943;-65
2023/07/08 11:50:17;;;;;;;;;;;;;;;;;;5075356;28;20867;-65
2023/07/08 11:52:43;;;;;;;;;;;;;;;;;;5074011;28;19927;-66
2023/07/08 11:55:08;;;;;;;;;;;;;;;;;;5075386;28;19941;-64
2023/07/08 11:57:33;;;;;;;;;;;;;;;;;;5074341;28;20880;-68
2023/07/08 11:59:59;;;;;;;;;;;;;;;;;;5070323;28;19919;-65
2023/07/08 12:02:28;;;;;;;;;;;;;;;;;;5074275;28;19919;-67
2023/07/08 12:04:54;;;;;;;;;;;;;;;;;;5056281;28;19953;-65
2023/07/08 12:07:23;;;;;;;;;;;;;;;;;;5094365;28;19945;-66
2023/07/08 12:09:48;;;;;;;;;;;;;;;;;;5093590;28;19924;-65
2023/07/08 12:12:13;;;;;;;;;;;;;;;;;;5071577;28;19927;-65
2023/07/08 12:14:39;;;;;;;;;;;;;;;;;;5093414;28;20984;-66
2023/07/08 12:17:09;;;;;;;;;;;;;;;;;;5092652;28;19920;-65
2023/07/08 12:19:35;;;;;;;;;;;;;;;;;;5074124;28;19927;-64
2023/07/08 12:22:00;;;;;;;;;;;;;;;;;;5056782;28;19953;-65
2023/07/08 12:24:27;;;;;;;;;;;;;;;;;;5056622;28;19915;-66
2023/07/08 12:26:52;;;;;;;;;;;;;;;;;;5074213;28;19980;-64
2023/07/08 12:29:20;;;;;;;;;;;;;;;;;;5072859;28;19927;-66
2023/07/08 12:31:46;;;;;;;;;;;;;;;;;;5092580;28;20046;-64
2023/07/08 12:34:11;;;;;;;;;;;;;;;;;;5056730;28;19968;-66
2023/07/08 12:36:39;;;;;;;;;;;;;;;;;;5069421;28;19916;-65
2023/07/08 12:39:05;;;;;;;;;;;;;;;;;;5092897;28;19959;-64
2023/07/08 12:41:30;;;;;;;;;;;;;;;;;;5093291;28;19915;-65
2023/07/08 12:43:55;;;;;;;;;;;;;;;;;;5072140;28;20051;-66
2023/07/08 12:46:21;;;;;;;;;;;;;;;;;;5070050;28;20797;-64
2023/07/08 12:48:46;;;;;;;;;;;;;;;;;;5055674;28;19924;-63
2023/07/08 12:51:14;;;;;;;;;;;;;;;;;;5061669;28;19926;-64
2023/07/08 12:53:42;;;;;;;;;;;;;;;;;;5071220;28;19916;-64
2023/07/08 12:56:08;;;;;;;;;;;;;;;;;;5071718;28;19931;-64
2023/07/08 12:58:36;;;;;;;;;;;;;;;;;;5069362;28;19920;-64
2023/07/08 13:01:01;;;;;;;;;;;;;;;;;;5072605;28;19927;-63
2023/07/08 13:03:26;;;;;;;;;;;;;;;;;;5072152;28;19920;-62
2023/07/08 13:05:54;;;;;;;;;;;;;;;;;;5059322;28;19924;-64
2023/07/08 13:08:23;;;;;;;;;;;;;;;;;;5070954;28;19960;-64
2023/07/08 13:10:48;;;;;;;;;;;;;;;;;;5070894;28;19920;-63
2023/07/08 13:13:14;;;;;;;;;;;;;;;;;;5069506;28;19920;-65
2023/07/08 13:15:39;;;;;;;;;;;;;;;;;;5052048;28;19981;-65
2023/07/08 13:18:05;;;;;;;;;;;;;;;;;;5070430;28;19920;-64
2023/07/08 13:20:30;;;;;;;;;;;;;;;;;;5071924;28;19943;-64
2023/07/08 13:22:56;;;;;;;;;;;;;;;;;;5079755;28;19965;-63
2023/07/08 13:25:21;;;;;;;;;;;;;;;;;;5053391;28;19920;-63
2023/07/08 13:27:47;;;;;;;;;;;;;;;;;;5070130;28;20006;-63
2023/07/08 13:30:12;;;;;;;;;;;;;;;;;;5063883;28;19923;-65
2023/07/08 13:32:40;;;;;;;;;;;;;;;;;;5072040;28;19939;-69
2023/07/08 13:35:07;;;;;;;;;;;;;;;;;;5062590;28;20790;-65
2023/07/08 13:37:35;;;;;;;;;;;;;;;;;;5088138;28;19999;-64
2023/07/08 13:40:01;;;;;;;;;;;;;;;;;;5047211;28;21889;-64
2023/07/08 13:42:26;;;;;;;;;;;;;;;;;;5069488;28;19916;-64
2023/07/08 13:44:51;;;;;;;;;;;;;;;;;;5065386;28;19965;-63
2023/07/08 13:47:16;;;;;;;;;;;;;;;;;;5071761;28;19920;-64
2023/07/08 13:49:45;;;;;;;;;;;;;;;;;;5056037;28;20393;-65
2023/07/08 13:52:10;;;;;;;;;;;;;;;;;;5053549;28;19920;-64
2023/07/08 13:54:36;;;;;;;;;;;;;;;;;;5072412;28;19920;-65
2023/07/08 13:57:01;;;;;;;;;;;;;;;;;;5070829;28;19955;-64
2023/07/08 13:59:26;;;;;;;;;;;;;;;;;;5091800;28;19915;-66
2023/07/08 14:01:52;;;;;;;;;;;;;;;;;;5071033;28;20004;-66
2023/07/08 14:04:17;;;;;;;;;;;;;;;;;;5051815;28;19916;-64
2023/07/08 14:06:43;;;;;;;;;;;;;;;;;;5072527;28;19933;-68
2023/07/08 14:09:09;;;;;;;;;;;;;;;;;;5071148;28;19939;-63
2023/07/08 14:11:37;;;;;;;;;;;;;;;;;;5054048;28;19935;-64
2023/07/08 14:14:02;;;;;;;;;;;;;;;;;;5055490;28;19981;-64
2023/07/08 14:16:27;;;;;;;;;;;;;;;;;;5053236;28;19915;-64
2023/07/08 14:18:53;;;;;;;;;;;;;;;;;;5070882;28;19960;-64
2023/07/08 14:21:21;;;;;;;;;;;;;;;;;;5071730;28;19916;-65
2023/07/08 14:23:46;;;;;;;;;;;;;;;;;;5073276;28;20010;-65
2023/07/08 14:26:11;;;;;;;;;;;;;;;;;;5070334;28;19920;-66
2023/07/08 14:28:37;;;;;;;;;;;;;;;;;;5053216;28;20369;-64
2023/07/08 14:31:02;;;;;;;;;;;;;;;;;;5067789;28;20000;-65
2023/07/08 14:33:31;;;;;;;;;;;;;;;;;;5071527;28;21067;-65
2023/07/08 14:35:59;;;;;;;;;;;;;;;;;;5086563;28;19916;-65
2023/07/08 14:38:24;;;;;;;;;;;;;;;;;;5072144;28;20362;-68
2023/07/08 14:40:49;;;;;;;;;;;;;;;;;;5072458;28;19999;-64
2023/07/08 14:43:15;;;;;;;;;;;;;;;;;;5071466;28;19924;-64
2023/07/08 14:45:40;;;;;;;;;;;;;;;;;;5071346;28;19931;-64
2023/07/08 14:48:05;;;;;;;;;;;;;;;;;;5052501;28;19920;-65
2023/07/08 14:50:31;;;;;;;;;;;;;;;;;;5053861;28;19920;-63
2023/07/08 14:52:56;;;;;;;;;;;;;;;;;;5054343;28;19967;-64
2023/07/08 14:55:22;;;;;;;;;;;;;;;;;;5091698;28;19950;-64
2023/07/08 14:57:47;;;;;;;;;;;;;;;;;;5067707;28;20034;-64
2023/07/08 15:00:13;;;;;;;;;;;;;;;;;;5053992;28;19920;-64
2023/07/08 15:02:38;;;;;;;;;;;;;;;;;;5070895;28;20354;-65
2023/07/08 15:05:03;;;;;;;;;;;;;;;;;;5069621;28;19919;-65
2023/07/08 15:07:29;;;;;;;;;;;;;;;;;;5071478;28;20749;-64
2023/07/08 15:09:54;;;;;;;;;;;;;;;;;;5071064;28;20040;-65
2023/07/08 15:12:19;;;;;;;;;;;;;;;;;;5071193;28;20018;-65
2023/07/08 15:14:45;;;;;;;;;;;;;;;;;;5091655;28;19962;-66
2023/07/08 15:17:14;;;;;;;;;;;;;;;;;;5070865;28;19916;-63
2023/07/08 15:19:39;;;;;;;;;;;;;;;;;;5070302;28;20007;-63
2023/07/08 15:22:10;;;;;;;;;;;;;;;;;;5052953;28;19961;-64
2023/07/08 15:24:35;;;;;;;;;;;;;;;;;;5071418;28;20391;-66
2023/07/08 15:27:01;;;;;;;;;;;;;;;;;;5089313;28;19954;-63
2023/07/08 15:29:26;;;;;;;;;;;;;;;;;;5070429;28;19924;-66
2023/07/08 15:31:55;;;;;;;;;;;;;;;;;;5068338;28;19919;-66
2023/07/08 15:34:20;;;;;;;;;;;;;;;;;;5053903;28;19920;-63
2023/07/08 15:36:46;;;;;;;;;;;;;;;;;;5054322;28;20428;-65
2023/07/08 15:39:14;;;;;;;;;;;;;;;;;;5055832;28;19996;-66
2023/07/08 15:41:39;;;;;;;;;;;;;;;;;;5051880;28;19920;-63
2023/07/08 15:44:07;;;;;;;;;;;;;;;;;;5070318;28;19930;-64
2023/07/08 15:46:33;;;;;;;;;;;;;;;;;;5069327;28;21291;-64
2023/07/08 15:48:58;;;;;;;;;;;;;;;;;;5052096;28;19927;-64
2023/07/08 15:51:26;;;;;;;;;;;;;;;;;;5072027;28;19920;-65
2023/07/08 15:53:51;;;;;;;;;;;;;;;;;;5070759;28;19923;-65
2023/07/08 15:56:17;;;;;;;;;;;;;;;;;;5065312;28;20464;-64
2023/07/08 15:58:44;;;;;;;;;;;;;;;;;;5072934;28;20387;-63
2023/07/08 16:01:10;;;;;;;;;;;;;;;;;;5069453;28;19920;-64
2023/07/08 16:03:35;;;;;;;;;;;;;;;;;;5053003;28;19915;-64
2023/07/08 16:06:00;;;;;;;;;;;;;;;;;;5087848;28;20124;-63
2023/07/08 16:08:26;;;;;;;;;;;;;;;;;;5073229;28;19939;-64
2023/07/08 16:10:51;;;;;;;;;;;;;;;;;;5056279;28;19920;-63
2023/07/08 16:13:19;;;;;;;;;;;;;;;;;;5051826;28;19916;-63
2023/07/08 16:15:44;;;;;;;;;;;;;;;;;;5053618;28;20968;-64
2023/07/08 16:18:09;;;;;;;;;;;;;;;;;;5055779;28;19919;-64
2023/07/08 16:20:35;;;;;;;;;;;;;;;;;;5057212;28;19966;-67
2023/07/08 16:23:00;;;;;;;;;;;;;;;;;;5056838;28;20075;-63
2023/07/08 16:25:26;;;;;;;;;;;;;;;;;;5057096;28;19956;-65
2023/07/08 16:27:53;;;;;;;;;;;;;;;;;;5092098;27;19916;-63
2023/07/08 16:30:19;;;;;;;;;;;;;;;;;;5070199;28;19931;-62
2023/07/08 16:32:44;;;;;;;;;;;;;;;;;;5072971;28;19920;-64
2023/07/08 16:35:09;;;;;;;;;;;;;;;;;;5072998;28;20543;-64
2023/07/08 16:37:35;;;;;;;;;;;;;;;;;;5073364;28;19920;-63
2023/07/08 16:40:00;;;;;;;;;;;;;;;;;;5073146;28;19920;-65
2023/07/08 16:42:26;;;;;;;;;;;;;;;;;;5071878;28;20430;-64
2023/07/08 16:44:54;;;;;;;;;;;;;;;;;;5091042;28;20467;-65
2023/07/08 16:47:22;;;;;;;;;;;;;;;;;;5070014;28;20449;-63
2023/07/08 16:49:47;;;;;;;;;;;;;;;;;;5069636;28;19924;-64
2023/07/08 16:52:14;;;;;;;;;;;;;;;;;;5072555;28;20469;-64
2023/07/08 16:54:42;;;;;;;;;;;;;;;;;;5069034;28;19920;-62
2023/07/08 16:57:07;;;;;;;;;;;;;;;;;;5064811;28;19932;-64
2023/07/08 16:59:33;;;;;;;;;;;;;;;;;;5053817;28;20361;-64